createdAt,value
2022-12-01T00:01:44.596Z,30.17
2022-12-01T00:03:47.735Z,30.37
2022-12-01T00:06:01.291Z,30.80
2022-12-01T00:08:05.163Z,31.27
2022-12-01T00:10:28.797Z,31.07
2022-12-01T00:12:31.892Z,29.73
2022-12-01T00:14:34.829Z,30.70
2022-12-01T00:16:38.388Z,30.27
2022-12-01T00:18:41.841Z,31.13
2022-12-01T00:20:44.723Z,29.70
2022-12-01T00:22:50.422Z,31.27
2022-12-01T00:24:53.381Z,30.63
2022-12-01T00:26:56.383Z,31.07
2022-12-01T00:29:00.642Z,30.43
2022-12-01T00:31:08.220Z,30.07
2022-12-01T00:33:11.250Z,29.83
2022-12-01T00:35:15.245Z,29.27
2022-12-01T00:37:18.417Z,29.17
2022-12-01T00:39:22.793Z,29.43
2022-12-01T00:41:27.882Z,28.10
2022-12-01T00:43:30.861Z,28.60
2022-12-01T00:45:33.815Z,29.30
2022-12-01T00:47:36.828Z,29.43
2022-12-01T00:49:39.783Z,29.50
2022-12-01T00:51:42.684Z,28.70
2022-12-01T00:53:45.970Z,28.33
2022-12-01T00:55:50.381Z,29.23
2022-12-01T00:57:53.309Z,29.07
2022-12-01T00:59:56.216Z,29.73
2022-12-01T01:01:59.159Z,30.43
2022-12-01T01:04:02.173Z,29.23
2022-12-01T01:06:06.908Z,30.30
2022-12-01T01:08:10.899Z,29.70
2022-12-01T01:10:13.913Z,28.73
2022-12-01T01:12:18.135Z,30.10
2022-12-01T01:14:21.727Z,29.20
2022-12-01T01:16:24.909Z,29.30
2022-12-01T01:18:27.061Z,27.37
2022-12-01T01:20:30.453Z,28.93
2022-12-01T01:22:33.378Z,28.97
2022-12-01T01:24:36.477Z,28.03
2022-12-01T01:26:39.502Z,29.37
2022-12-01T01:28:44.012Z,25.83
2022-12-01T01:30:47.616Z,26.40
2022-12-01T01:32:50.534Z,25.63
2022-12-01T01:34:53.453Z,25.33
2022-12-01T01:36:56.356Z,23.47
2022-12-01T01:38:59.258Z,24.83
2022-12-01T01:41:02.247Z,23.37
2022-12-01T01:43:14.697Z,23.03
2022-12-01T01:45:26.178Z,22.27
2022-12-01T01:47:33.451Z,22.53
2022-12-01T01:49:36.472Z,22.53
2022-12-01T01:51:47.664Z,22.63
2022-12-01T01:53:51.918Z,22.17
2022-12-01T01:55:54.887Z,21.43
2022-12-01T01:57:58.409Z,19.67
2022-12-01T02:00:07.439Z,20.90
2022-12-01T02:02:13.442Z,19.70
2022-12-01T02:04:17.564Z,20.57
2022-12-01T02:06:21.013Z,20.30
2022-12-01T02:08:23.923Z,20.07
2022-12-01T02:10:38.870Z,19.20
2022-12-01T02:12:54.432Z,20.90
2022-12-01T02:15:08.873Z,20.13
2022-12-01T02:17:23.698Z,18.17
2022-12-01T02:19:47.090Z,18.03
2022-12-01T02:22:02.323Z,17.57
2022-12-01T02:24:59.036Z,18.10
2022-12-01T02:27:08.670Z,19.37
2022-12-01T02:29:42.908Z,18.93
2022-12-01T02:31:56.292Z,19.63
2022-12-01T02:34:03.926Z,18.10
2022-12-01T02:36:16.507Z,18.53
2022-12-01T02:38:29.477Z,17.20
2022-12-01T02:40:39.449Z,17.00
2022-12-01T02:42:52.424Z,17.33
2022-12-01T02:44:56.652Z,18.50
2022-12-01T02:47:04.291Z,16.73
2022-12-01T02:49:11.935Z,17.07
2022-12-01T02:51:18.505Z,17.00
2022-12-01T02:53:21.470Z,17.00
2022-12-01T02:55:24.419Z,16.63
2022-12-01T02:57:27.325Z,15.87
2022-12-01T02:59:30.176Z,16.13
2022-12-01T03:01:52.764Z,15.40
2022-12-01T03:04:06.678Z,16.90
2022-12-01T03:06:15.775Z,17.10
2022-12-01T03:08:25.728Z,16.93
2022-12-01T03:10:38.264Z,15.80
2022-12-01T03:12:49.250Z,15.83
2022-12-01T03:15:03.253Z,15.53
2022-12-01T03:17:10.163Z,16.57
2022-12-01T03:19:20.232Z,15.77
2022-12-01T03:21:27.359Z,16.20
2022-12-01T03:23:34.406Z,16.43
2022-12-01T03:25:38.817Z,16.20
2022-12-01T03:28:13.389Z,15.13
2022-12-01T03:30:10.808Z,14.73
2022-12-01T03:32:19.880Z,15.20
2022-12-01T03:34:27.859Z,14.73
2022-12-01T03:36:34.926Z,16.97
2022-12-01T03:38:38.826Z,17.03
2022-12-01T03:40:42.549Z,15.80
2022-12-01T03:42:51.076Z,16.20
2022-12-01T03:44:57.223Z,16.53
2022-12-01T03:47:05.272Z,16.97
2022-12-01T03:49:08.921Z,17.53
2022-12-01T03:51:17.107Z,17.00
2022-12-01T03:53:25.132Z,16.20
2022-12-01T03:55:30.189Z,17.30
2022-12-01T03:57:37.333Z,17.13
2022-12-01T03:59:41.743Z,18.03
2022-12-01T04:01:46.092Z,17.57
2022-12-01T04:03:49.231Z,18.47
2022-12-01T04:05:52.510Z,19.97
2022-12-01T04:07:56.927Z,18.87
2022-12-01T04:09:59.912Z,17.93
2022-12-01T04:12:28.514Z,19.27
2022-12-01T04:14:31.407Z,18.63
2022-12-01T04:16:34.442Z,18.63
2022-12-01T04:18:37.338Z,18.63
2022-12-01T04:20:40.216Z,18.73
2022-12-01T04:22:43.331Z,19.17
2022-12-01T04:24:47.827Z,19.77
2022-12-01T04:26:50.688Z,18.40
2022-12-01T04:28:53.594Z,19.73
2022-12-01T04:30:56.494Z,19.77
2022-12-01T04:32:59.342Z,18.37
2022-12-01T04:35:02.223Z,18.70
2022-12-01T04:37:05.943Z,18.53
2022-12-01T04:39:08.956Z,17.53
2022-12-01T04:41:14.213Z,18.53
2022-12-01T04:43:17.097Z,18.73
2022-12-01T04:45:20.080Z,17.80
2022-12-01T04:47:22.940Z,18.00
2022-12-01T04:49:26.402Z,17.37
2022-12-01T04:51:29.260Z,17.93
2022-12-01T04:53:32.619Z,17.60
2022-12-01T04:55:38.903Z,18.07
2022-12-01T04:57:43.103Z,17.17
2022-12-01T04:59:45.958Z,18.17
2022-12-01T05:01:48.989Z,16.27
2022-12-01T05:03:51.975Z,17.03
2022-12-01T05:06:02.364Z,16.70
2022-12-01T05:08:05.677Z,18.03
2022-12-01T05:10:09.727Z,18.17
2022-12-01T05:12:12.604Z,18.93
2022-12-01T05:14:17.174Z,19.37
2022-12-01T05:16:22.237Z,17.27
2022-12-01T05:18:25.191Z,18.73
2022-12-01T05:20:46.685Z,17.53
2022-12-01T05:23:06.269Z,18.47
2022-12-01T05:25:09.784Z,15.97
2022-12-01T05:27:12.621Z,17.23
2022-12-01T05:29:16.829Z,19.50
2022-12-01T05:31:19.755Z,19.50
2022-12-01T05:33:22.820Z,21.80
2022-12-01T05:35:25.700Z,21.50
2022-12-01T05:37:32.199Z,20.23
2022-12-01T05:39:35.096Z,21.03
2022-12-01T05:41:37.949Z,19.70
2022-12-01T05:43:40.884Z,21.23
2022-12-01T05:45:45.138Z,21.53
2022-12-01T05:47:48.026Z,22.20
2022-12-01T05:49:51.157Z,21.20
2022-12-01T05:51:54.095Z,22.80
2022-12-01T05:53:56.936Z,23.80
2022-12-01T05:55:59.755Z,24.73
2022-12-01T05:58:02.854Z,24.53
2022-12-01T06:00:06.928Z,25.80
2022-12-01T06:02:11.327Z,24.40
2022-12-01T06:04:14.334Z,31.23
2022-12-01T06:06:17.498Z,27.23
2022-12-01T06:08:20.562Z,25.93
2022-12-01T06:10:23.677Z,26.60
2022-12-01T06:12:26.593Z,26.07
2022-12-01T06:14:29.459Z,26.17
2022-12-01T06:16:32.375Z,26.60
2022-12-01T06:18:38.508Z,26.23
2022-12-01T06:20:41.336Z,26.60
2022-12-01T06:22:44.414Z,26.40
2022-12-01T06:24:47.254Z,25.80
2022-12-01T06:26:50.072Z,25.90
2022-12-01T06:28:52.883Z,26.20
2022-12-01T06:31:02.619Z,24.47
2022-12-01T06:33:06.448Z,25.87
2022-12-01T06:35:12.487Z,25.23
2022-12-01T06:37:16.733Z,24.90
2022-12-01T06:39:19.682Z,25.53
2022-12-01T06:41:22.557Z,24.90
2022-12-01T06:43:25.420Z,24.93
2022-12-01T06:45:28.283Z,25.30
2022-12-01T06:47:31.129Z,23.57
2022-12-01T06:49:34.026Z,25.00
2022-12-01T06:51:38.305Z,26.77
2022-12-01T06:53:41.169Z,27.20
2022-12-01T06:55:43.979Z,28.03
2022-12-01T06:57:47.105Z,28.30
2022-12-01T06:59:50.633Z,26.80
2022-12-01T07:01:54.141Z,27.63
2022-12-01T07:03:57.055Z,26.70
2022-12-01T07:06:01.845Z,26.23
2022-12-01T07:08:06.823Z,26.07
2022-12-01T07:10:11.614Z,26.73
2022-12-01T07:12:14.569Z,25.90
2022-12-01T07:14:23.114Z,27.67
2022-12-01T07:16:26.500Z,27.00
2022-12-01T07:18:29.461Z,26.13
2022-12-01T07:20:32.358Z,25.73
2022-12-01T07:22:36.101Z,26.13
2022-12-01T07:24:40.280Z,26.00
2022-12-01T07:26:43.686Z,25.90
2022-12-01T07:28:47.069Z,25.50
2022-12-01T07:30:49.974Z,24.37
2022-12-01T07:32:52.946Z,27.67
2022-12-01T07:34:55.781Z,28.10
2022-12-01T07:36:58.646Z,27.53
2022-12-01T07:39:05.377Z,28.67
2022-12-01T07:41:11.857Z,27.23
2022-12-01T07:43:14.784Z,26.63
2022-12-01T07:45:17.680Z,26.47
2022-12-01T07:47:20.537Z,25.60
2022-12-01T07:49:23.390Z,26.63
2022-12-01T07:51:27.068Z,25.47
2022-12-01T07:53:29.948Z,25.07
2022-12-01T07:55:32.779Z,24.00
2022-12-01T07:57:36.946Z,25.97
2022-12-01T07:59:39.765Z,24.40
2022-12-01T08:01:44.641Z,24.87
2022-12-01T08:03:49.350Z,25.17
2022-12-01T08:05:58.291Z,24.27
2022-12-01T08:08:01.205Z,24.50
2022-12-01T08:10:04.552Z,25.60
2022-12-01T08:12:07.636Z,26.30
2022-12-01T08:14:11.828Z,25.23
2022-12-01T08:16:16.724Z,24.63
2022-12-01T08:18:19.551Z,24.10
2022-12-01T08:20:24.177Z,23.57
2022-12-01T08:22:27.141Z,24.47
2022-12-01T08:24:29.989Z,25.27
2022-12-01T08:26:33.837Z,25.53
2022-12-01T08:28:37.473Z,24.97
2022-12-01T08:30:41.820Z,25.33
2022-12-01T08:32:44.662Z,25.97
2022-12-01T08:34:53.121Z,25.53
2022-12-01T08:36:56.473Z,25.40
2022-12-01T08:39:00.184Z,24.53
2022-12-01T08:41:03.682Z,24.57
2022-12-01T08:43:06.666Z,24.63
2022-12-01T08:45:10.667Z,25.10
2022-12-01T08:47:18.728Z,23.97
2022-12-01T08:49:22.865Z,24.73
2022-12-01T08:51:26.006Z,24.70
2022-12-01T08:53:28.874Z,24.40
2022-12-01T08:55:31.756Z,24.60
2022-12-01T08:57:34.569Z,24.67
2022-12-01T08:59:37.476Z,25.20
2022-12-01T09:01:52.156Z,25.57
2022-12-01T09:04:06.711Z,26.40
2022-12-01T09:06:12.334Z,25.33
2022-12-01T09:08:34.092Z,26.50
2022-12-01T09:10:37.124Z,25.33
2022-12-01T09:12:39.985Z,26.77
2022-12-01T09:14:48.085Z,26.03
2022-12-01T09:16:52.003Z,27.27
2022-12-01T09:18:56.514Z,26.63
2022-12-01T09:20:59.906Z,26.50
2022-12-01T09:23:02.792Z,27.67
2022-12-01T09:25:08.173Z,27.50
2022-12-01T09:27:11.562Z,28.67
2022-12-01T09:29:16.467Z,28.03
2022-12-01T09:31:20.686Z,29.03
2022-12-01T09:33:23.630Z,31.07
2022-12-01T09:35:27.970Z,30.60
2022-12-01T09:37:30.799Z,29.70
2022-12-01T09:39:33.813Z,30.90
2022-12-01T09:41:40.359Z,30.77
2022-12-01T09:43:46.743Z,29.67
2022-12-01T09:45:55.733Z,30.60
2022-12-01T09:48:01.814Z,29.00
2022-12-01T09:50:07.836Z,31.23
2022-12-01T09:52:13.651Z,30.87
2022-12-01T09:54:16.664Z,29.53
2022-12-01T09:56:22.438Z,29.70
2022-12-01T09:58:30.855Z,29.80
2022-12-01T10:00:36.575Z,27.67
2022-12-01T10:02:43.524Z,30.10
2022-12-01T10:04:48.944Z,29.17
2022-12-01T10:06:56.415Z,29.03
2022-12-01T10:09:06.448Z,27.87
2022-12-01T10:11:25.612Z,25.77
2022-12-01T10:13:29.920Z,26.80
2022-12-01T10:15:46.184Z,27.10
2022-12-01T10:17:59.154Z,23.70
2022-12-01T10:20:07.159Z,25.40
2022-12-01T10:23:02.607Z,25.77
2022-12-01T10:25:14.432Z,24.00
2022-12-01T10:27:27.542Z,25.77
2022-12-01T10:29:44.992Z,25.57
2022-12-01T10:31:58.067Z,25.77
2022-12-01T10:34:04.042Z,26.03
2022-12-01T10:36:08.129Z,25.93
2022-12-01T10:38:20.944Z,23.70
2022-12-01T10:40:27.300Z,23.70
2022-12-01T10:42:35.558Z,24.27
2022-12-01T10:44:38.650Z,23.17
2022-12-01T10:46:45.459Z,20.07
2022-12-01T10:48:55.724Z,17.50
2022-12-01T10:51:16.059Z,15.40
2022-12-01T10:53:30.733Z,17.00
2022-12-01T10:55:40.881Z,16.57
2022-12-01T10:57:47.730Z,17.90
2022-12-01T10:59:53.218Z,16.93
2022-12-01T11:01:57.721Z,15.47
2022-12-01T11:04:04.708Z,15.67
2022-12-01T11:06:08.729Z,18.07
2022-12-01T11:08:23.102Z,18.10
2022-12-01T11:10:28.197Z,19.77
2022-12-01T11:12:33.856Z,18.20
2022-12-01T11:14:46.007Z,17.37
2022-12-01T11:16:51.894Z,16.33
2022-12-01T11:19:09.538Z,16.33
2022-12-01T11:21:14.968Z,17.67
2022-12-01T11:23:25.595Z,21.30
2022-12-01T11:25:28.503Z,21.77
2022-12-01T11:27:36.034Z,20.60
2022-12-01T11:29:40.964Z,22.40
2022-12-01T11:31:46.759Z,21.10
2022-12-01T11:33:53.297Z,19.00
2022-12-01T11:35:56.713Z,20.43
2022-12-01T11:40:28.894Z,19.67
2022-12-01T11:42:34.399Z,19.57
2022-12-01T11:44:51.396Z,19.27
2022-12-01T11:47:07.855Z,19.63
2022-12-01T11:49:20.757Z,19.50
2022-12-01T11:51:31.742Z,18.33
2022-12-01T11:53:36.413Z,20.13
2022-12-01T11:55:39.302Z,21.57
2022-12-01T11:57:46.785Z,18.77
2022-12-01T11:59:49.990Z,17.80
2022-12-01T12:02:11.469Z,17.93
2022-12-01T12:04:27.470Z,17.03
2022-12-01T12:06:40.249Z,19.83
2022-12-01T12:09:01.753Z,20.53
2022-12-01T12:11:13.870Z,20.13
2022-12-01T12:13:36.519Z,20.80
2022-12-01T12:15:53.559Z,19.63
2022-12-01T12:18:17.330Z,19.23
2022-12-01T12:20:35.668Z,19.23
2022-12-01T12:22:55.168Z,20.03
2022-12-01T12:25:11.209Z,20.93
2022-12-01T12:27:23.084Z,21.77
2022-12-01T12:29:49.318Z,20.63
2022-12-01T12:32:07.350Z,20.60
2022-12-01T12:34:23.165Z,22.57
2022-12-01T12:36:35.798Z,21.37
2022-12-01T12:38:52.487Z,22.53
2022-12-01T12:41:00.534Z,22.60
2022-12-01T12:43:19.644Z,22.50
2022-12-01T12:45:29.639Z,22.80
2022-12-01T12:47:46.764Z,22.50
2022-12-01T12:50:00.790Z,20.60
2022-12-01T12:52:09.134Z,22.30
2022-12-01T12:54:21.693Z,22.90
2022-12-01T12:56:27.978Z,23.20
2022-12-01T12:58:37.358Z,24.07
2022-12-01T13:00:45.415Z,23.00
2022-12-01T13:02:51.672Z,23.93
2022-12-01T13:05:01.177Z,23.87
2022-12-01T13:07:09.690Z,22.07
2022-12-01T13:09:16.858Z,23.57
2022-12-01T13:11:23.130Z,23.20
2022-12-01T13:13:30.564Z,24.73
2022-12-01T13:15:36.498Z,24.73
2022-12-01T13:17:44.742Z,23.90
2022-12-01T13:19:48.532Z,23.73
2022-12-01T13:21:52.999Z,24.07
2022-12-01T13:23:56.013Z,23.03
2022-12-01T13:26:01.976Z,24.20
2022-12-01T13:28:12.414Z,23.33
2022-12-01T13:30:21.106Z,24.03
2022-12-01T13:32:31.455Z,22.53
2022-12-01T13:34:40.885Z,24.47
2022-12-01T13:36:50.543Z,23.63
2022-12-01T13:38:59.885Z,22.10
2022-12-01T13:41:15.784Z,24.97
2022-12-01T13:43:21.171Z,24.13
2022-12-01T13:45:24.507Z,23.20
2022-12-01T13:47:40.545Z,24.17
2022-12-01T13:49:47.155Z,24.17
2022-12-01T13:52:32.791Z,24.93
2022-12-01T13:54:37.524Z,23.73
2022-12-01T13:56:47.588Z,24.70
2022-12-01T13:58:51.993Z,24.90
2022-12-01T14:01:10.091Z,25.50
2022-12-01T14:03:41.684Z,25.57
2022-12-01T14:05:52.052Z,26.13
2022-12-01T14:07:55.532Z,27.07
2022-12-01T14:10:17.792Z,25.57
2022-12-01T14:12:24.419Z,25.97
2022-12-01T14:14:29.373Z,26.07
2022-12-01T14:16:48.129Z,26.67
2022-12-01T14:18:54.878Z,26.23
2022-12-01T14:21:00.509Z,28.17
2022-12-01T14:23:18.432Z,27.37
2022-12-01T14:25:26.861Z,26.97
2022-12-01T14:27:38.898Z,28.37
2022-12-01T14:29:43.361Z,26.43
2022-12-01T14:32:06.965Z,27.47
2022-12-01T14:34:15.744Z,27.13
2022-12-01T14:36:34.926Z,27.30
2022-12-01T14:38:38.680Z,25.07
2022-12-01T14:40:41.770Z,26.47
2022-12-01T14:43:06.192Z,26.33
2022-12-01T14:45:14.114Z,24.17
2022-12-01T14:47:22.641Z,23.93
2022-12-01T14:49:30.400Z,23.23
2022-12-01T14:51:37.297Z,23.93
2022-12-01T14:53:45.541Z,23.07
2022-12-01T14:55:53.288Z,22.20
2022-12-01T14:58:06.138Z,20.63
2022-12-01T15:00:14.338Z,22.10
2022-12-01T15:02:17.881Z,23.10
2022-12-01T15:04:20.903Z,22.90
2022-12-01T15:06:25.565Z,22.17
2022-12-01T15:09:04.266Z,23.07
2022-12-01T15:10:55.977Z,21.03
2022-12-01T15:12:58.827Z,21.73
2022-12-01T15:15:02.686Z,20.57
2022-12-01T15:17:08.787Z,22.10
2022-12-01T15:19:31.540Z,22.30
2022-12-01T15:21:34.496Z,21.43
2022-12-01T15:23:52.792Z,20.67
2022-12-01T15:25:57.221Z,20.37
2022-12-01T15:28:05.389Z,21.50
2022-12-01T15:30:15.517Z,21.27
2022-12-01T15:32:19.473Z,21.70
2022-12-01T15:34:24.806Z,22.03
2022-12-01T15:36:27.823Z,21.20
2022-12-01T15:38:33.089Z,21.77
2022-12-01T15:43:06.060Z,21.57
2022-12-01T15:45:18.612Z,21.33
2022-12-01T15:47:35.933Z,23.17
2022-12-01T15:49:49.847Z,22.53
2022-12-01T15:51:53.500Z,24.47
2022-12-01T15:53:59.317Z,23.03
2022-12-01T15:56:07.302Z,24.13
2022-12-01T15:58:17.478Z,21.97
2022-12-01T16:00:20.910Z,22.00
2022-12-01T16:02:27.733Z,23.30
2022-12-01T16:04:33.163Z,23.80
2022-12-01T16:06:39.741Z,25.33
2022-12-01T16:08:43.028Z,25.13
2022-12-01T16:10:46.983Z,27.73
2022-12-01T16:12:51.216Z,28.60
2022-12-01T16:14:57.194Z,30.07
2022-12-01T16:17:00.560Z,30.00
2022-12-01T16:19:06.539Z,28.20
2022-12-01T16:21:11.242Z,27.80
2022-12-01T16:23:22.409Z,27.97
2022-12-01T16:25:31.317Z,28.03
2022-12-01T16:27:34.230Z,27.23
2022-12-01T16:29:49.062Z,29.00
2022-12-01T16:32:18.851Z,26.97
2022-12-01T16:34:44.094Z,26.23
2022-12-01T16:36:41.508Z,26.17
2022-12-01T16:38:44.337Z,25.50
2022-12-01T16:40:47.998Z,24.67
2022-12-01T16:42:51.169Z,24.33
2022-12-01T16:44:55.442Z,23.77
2022-12-01T16:46:58.302Z,23.73
2022-12-01T16:49:02.305Z,23.37
2022-12-01T16:51:07.728Z,25.20
2022-12-01T16:53:12.715Z,25.93
2022-12-01T16:55:30.009Z,24.70
2022-12-01T16:57:32.876Z,25.43
2022-12-01T16:59:35.718Z,25.53
2022-12-01T17:01:39.961Z,25.27
2022-12-01T17:03:42.889Z,25.73
2022-12-01T17:05:46.076Z,26.50
2022-12-01T17:07:49.290Z,26.33
2022-12-01T17:09:52.201Z,25.33
2022-12-01T17:11:56.277Z,27.03
2022-12-01T17:13:59.163Z,26.03
2022-12-01T17:16:06.031Z,25.60
2022-12-01T17:18:10.669Z,27.07
2022-12-01T17:20:14.223Z,26.47
2022-12-01T17:22:17.079Z,26.50
2022-12-01T17:24:19.990Z,26.13
2022-12-01T17:26:23.445Z,26.63
2022-12-01T17:28:26.543Z,27.57
2022-12-01T17:30:29.400Z,26.37
2022-12-01T17:32:32.583Z,27.20
2022-12-01T17:34:36.840Z,26.63
2022-12-01T17:36:39.772Z,27.57
2022-12-01T17:38:44.826Z,27.20
2022-12-01T17:40:59.541Z,26.73
2022-12-01T17:43:02.394Z,26.40
2022-12-01T17:45:06.071Z,25.43
2022-12-01T17:47:08.994Z,25.10
2022-12-01T17:49:13.227Z,26.77
2022-12-01T17:51:17.565Z,26.17
2022-12-01T17:53:20.507Z,25.23
2022-12-01T17:55:23.453Z,26.57
2022-12-01T17:57:26.613Z,25.37
2022-12-01T17:59:29.553Z,25.53
2022-12-01T18:01:32.569Z,26.00
2022-12-01T18:03:35.583Z,24.33
2022-12-01T18:05:38.469Z,24.63
2022-12-01T18:07:42.796Z,23.70
2022-12-01T18:09:45.928Z,24.40
2022-12-01T18:11:48.974Z,26.03
2022-12-01T18:13:52.642Z,22.13
2022-12-01T18:15:56.134Z,22.53
2022-12-01T18:17:59.043Z,19.67
2022-12-01T18:20:01.935Z,19.43
2022-12-01T18:22:04.783Z,19.80
2022-12-01T18:24:10.353Z,18.70
2022-12-01T18:26:16.055Z,20.13
2022-12-01T18:28:19.213Z,19.90
2022-12-01T18:30:22.114Z,22.17
2022-12-01T18:32:24.975Z,21.67
2022-12-01T18:34:29.478Z,20.97
2022-12-01T18:36:34.050Z,21.17
2022-12-01T18:38:36.918Z,20.50
2022-12-01T18:40:41.220Z,22.43
2022-12-01T18:42:44.094Z,21.30
2022-12-01T18:44:48.556Z,21.83
2022-12-01T18:46:51.713Z,21.47
2022-12-01T18:49:00.659Z,22.13
2022-12-01T18:51:04.820Z,22.67
2022-12-01T18:53:07.662Z,23.07
2022-12-01T18:55:10.954Z,22.17
2022-12-01T18:57:15.615Z,23.27
2022-12-01T18:59:18.469Z,24.13
2022-12-01T19:01:23.090Z,24.40
2022-12-01T19:03:26.738Z,23.40
2022-12-01T19:05:30.674Z,24.57
2022-12-01T19:07:33.689Z,24.53
2022-12-01T19:09:36.664Z,23.93
2022-12-01T19:11:41.461Z,24.37
2022-12-01T19:13:45.932Z,24.43
2022-12-01T19:15:50.274Z,24.23
2022-12-01T19:17:53.188Z,24.30
2022-12-01T19:19:56.085Z,23.37
2022-12-01T19:21:58.959Z,24.33
2022-12-01T19:24:01.865Z,23.10
2022-12-01T19:26:06.145Z,21.80
2022-12-01T19:28:09.160Z,22.77
2022-12-01T19:30:14.378Z,22.10
2022-12-01T19:32:17.371Z,22.97
2022-12-01T19:34:20.473Z,23.13
2022-12-01T19:36:25.780Z,22.67
2022-12-01T19:38:28.711Z,22.07
2022-12-01T19:40:31.604Z,22.83
2022-12-01T19:42:34.722Z,22.63
2022-12-01T19:44:37.630Z,22.80
2022-12-01T19:46:42.010Z,22.27
2022-12-01T19:48:45.689Z,22.87
2022-12-01T19:50:48.562Z,21.97
2022-12-01T19:52:51.559Z,22.80
2022-12-01T19:54:54.632Z,22.30
2022-12-01T19:56:57.695Z,23.30
2022-12-01T19:59:00.746Z,23.87
2022-12-01T20:01:05.141Z,22.57
2022-12-01T20:03:09.450Z,22.27
2022-12-01T20:05:12.438Z,22.33
2022-12-01T20:07:15.344Z,20.40
2022-12-01T20:09:18.270Z,21.87
2022-12-01T20:11:21.187Z,21.73
2022-12-01T20:13:24.093Z,20.60
2022-12-01T20:15:26.998Z,20.17
2022-12-01T20:17:30.512Z,21.93
2022-12-01T20:19:34.791Z,20.57
2022-12-01T20:21:43.000Z,19.70
2022-12-01T20:23:47.751Z,19.27
2022-12-01T20:25:50.739Z,19.07
2022-12-01T20:27:53.773Z,19.23
2022-12-01T20:29:56.829Z,18.67
2022-12-01T20:32:02.997Z,18.07
2022-12-01T20:34:12.372Z,18.83
2022-12-01T20:36:17.018Z,18.23
2022-12-01T20:38:25.784Z,18.03
2022-12-01T20:40:30.165Z,16.43
2022-12-01T20:42:33.047Z,17.67
2022-12-01T20:44:36.307Z,18.40
2022-12-01T20:46:41.071Z,17.70
2022-12-01T20:48:44.346Z,17.30
2022-12-01T20:50:47.371Z,17.83
2022-12-01T20:52:51.612Z,17.03
2022-12-01T20:54:54.586Z,16.90
2022-12-01T20:56:57.846Z,17.50
2022-12-01T20:59:01.464Z,16.50
2022-12-01T21:01:09.018Z,17.50
2022-12-01T21:03:12.414Z,17.43
2022-12-01T21:05:15.981Z,17.53
2022-12-01T21:07:19.060Z,17.10
2022-12-01T21:09:23.298Z,17.17
2022-12-01T21:11:42.502Z,16.50
2022-12-01T21:13:46.130Z,16.20
2022-12-01T21:15:58.623Z,16.33
2022-12-01T21:18:10.320Z,16.30
2022-12-01T21:20:21.924Z,16.53
2022-12-01T21:22:26.279Z,16.50
2022-12-01T21:24:36.754Z,17.50
2022-12-01T21:26:43.132Z,16.20
2022-12-01T21:28:46.913Z,15.93
2022-12-01T21:30:51.092Z,16.20
2022-12-01T21:32:54.920Z,15.07
2022-12-01T21:35:03.916Z,14.47
2022-12-01T21:37:11.954Z,14.27
2022-12-01T21:39:16.866Z,13.87
2022-12-01T21:41:25.552Z,13.70
2022-12-01T21:43:29.334Z,13.43
2022-12-01T21:45:34.501Z,13.60
2022-12-01T21:47:37.404Z,13.37
2022-12-01T21:49:40.808Z,12.37
2022-12-01T21:51:43.790Z,12.00
2022-12-01T21:53:48.197Z,11.77
2022-12-01T21:55:51.109Z,11.83
2022-12-01T21:57:55.823Z,11.87
2022-12-01T22:00:06.082Z,11.87
2022-12-01T22:02:33.002Z,12.00
2022-12-01T22:04:35.996Z,13.23
2022-12-01T22:06:41.112Z,12.70
2022-12-01T22:08:47.156Z,12.63
2022-12-01T22:10:55.756Z,11.83
2022-12-01T22:12:59.976Z,11.73
2022-12-01T22:15:11.847Z,12.10
2022-12-01T22:17:19.711Z,12.30
2022-12-01T22:19:27.799Z,12.50
2022-12-01T22:21:38.137Z,12.87
2022-12-01T22:23:41.008Z,12.30
2022-12-01T22:25:44.178Z,13.37
2022-12-01T22:27:47.085Z,12.10
2022-12-01T22:29:53.808Z,12.63
2022-12-01T22:32:35.821Z,13.20
2022-12-01T22:34:39.071Z,12.63
2022-12-01T22:36:42.073Z,12.33
2022-12-01T22:38:45.246Z,12.67
2022-12-01T22:40:56.143Z,12.47
2022-12-01T22:43:01.177Z,13.87
2022-12-01T22:45:23.626Z,14.13
2022-12-01T22:47:30.002Z,12.43
2022-12-01T22:49:32.934Z,13.63
2022-12-01T22:51:43.293Z,13.53
2022-12-01T22:53:47.101Z,13.93
2022-12-01T22:55:51.274Z,13.67
2022-12-01T22:57:55.022Z,13.50
2022-12-01T22:59:58.488Z,13.10
2022-12-01T23:02:07.505Z,13.17
2022-12-01T23:04:24.271Z,13.47
2022-12-01T23:06:57.160Z,13.80
2022-12-01T23:08:59.997Z,12.83
2022-12-01T23:11:03.030Z,13.07
2022-12-01T23:13:14.404Z,13.90
2022-12-01T23:15:31.668Z,13.40
2022-12-01T23:17:38.907Z,13.40
2022-12-01T23:19:41.881Z,13.23
2022-12-01T23:21:44.783Z,13.90
2022-12-01T23:23:47.666Z,13.33
2022-12-01T23:25:51.628Z,12.80
2022-12-01T23:27:56.261Z,13.73
2022-12-01T23:29:59.177Z,13.67
2022-12-01T23:32:02.241Z,13.13
2022-12-01T23:34:13.886Z,13.63
2022-12-01T23:36:19.678Z,13.53
2022-12-01T23:38:24.619Z,12.60
2022-12-01T23:40:31.598Z,13.13
2022-12-01T23:42:34.701Z,13.33
2022-12-01T23:44:40.507Z,12.63
2022-12-01T23:46:43.718Z,12.63
2022-12-01T23:48:49.640Z,12.10
2022-12-01T23:50:55.356Z,12.90
2022-12-01T23:52:58.620Z,13.80
2022-12-01T23:55:01.726Z,12.87
2022-12-01T23:57:11.703Z,13.03
2022-12-01T23:59:15.203Z,12.27
